Time;durP1;ratioP1;P1;durP2;ratioP2;P2;SDS_P1;SDS_P2;PMS_P1;PMS_P2;Temp;Humidity;BMP_temperature;BMP_pressure;BME280_temperature;BME280_humidity;BME280_pressure;Samples;Min_cycle;Max_cycle;Signal;HPM_P1;HPM_P2
2022/07/18 00:01:03;;;;;;;6.80;2.37;;;14.70;99.90;;;;;;4916835;29;20286;-79
2022/07/18 00:03:29;;;;;;;6.57;2.60;;;14.70;99.90;;;;;;4919398;29;20191;-77
2022/07/18 00:05:56;;;;;;;5.43;2.50;;;14.70;99.90;;;;;;4919587;29;20195;-77
2022/07/18 00:08:23;;;;;;;6.77;2.77;;;14.70;99.90;;;;;;4919650;29;20209;-78
2022/07/18 00:10:50;;;;;;;3.53;2.23;;;14.60;99.90;;;;;;4935562;29;20219;-76
2022/07/18 00:13:17;;;;;;;4.73;2.40;;;14.70;99.90;;;;;;4919599;29;20298;-78
2022/07/18 00:15:44;;;;;;;4.27;2.40;;;14.60;99.90;;;;;;4919367;29;20198;-76
2022/07/18 00:18:11;;;;;;;9.63;2.60;;;14.60;99.90;;;;;;4919029;29;20194;-78
2022/07/18 00:20:38;;;;;;;4.07;2.47;;;14.60;99.90;;;;;;4919462;29;20293;-77
2022/07/18 00:23:06;;;;;;;4.07;2.30;;;14.50;99.90;;;;;;4935838;29;20281;-78
2022/07/18 00:25:33;;;;;;;8.60;2.67;;;14.50;99.90;;;;;;4936380;29;20187;-77
2022/07/18 00:28:00;;;;;;;5.17;2.40;;;14.50;99.90;;;;;;4936136;29;20222;-77
2022/07/18 00:30:27;;;;;;;5.40;2.43;;;14.50;99.90;;;;;;4935956;29;20225;-77
2022/07/18 00:32:55;;;;;;;5.03;2.53;;;14.50;99.90;;;;;;4918991;29;20206;-78
2022/07/18 00:35:22;;;;;;;7.10;2.77;;;14.40;99.90;;;;;;4918968;29;20187;-77
2022/07/18 00:37:49;;;;;;;5.57;2.60;;;14.40;99.90;;;;;;4919057;29;20285;-77
2022/07/18 00:40:16;;;;;;;8.03;2.67;;;14.40;99.90;;;;;;4936156;29;20657;-77
2022/07/18 00:42:43;;;;;;;5.17;2.67;;;14.30;99.90;;;;;;4918598;29;20210;-77
2022/07/18 00:45:10;;;;;;;4.40;2.67;;;14.30;99.90;;;;;;4918836;29;20209;-77
2022/07/18 00:47:37;;;;;;;8.20;2.67;;;14.30;99.90;;;;;;4935987;29;20272;-78
2022/07/18 00:50:07;;;;;;;4.30;2.43;;;14.20;99.90;;;;;;4934689;29;20656;-77
2022/07/18 00:52:36;;;;;;;6.30;2.90;;;14.20;99.90;;;;;;4932426;29;20234;-75
2022/07/18 00:55:06;;;;;;;4.13;2.53;;;14.20;99.90;;;;;;4918989;29;20203;-80
2022/07/18 00:57:34;;;;;;;6.17;2.60;;;14.10;99.90;;;;;;4918920;29;20610;-81
2022/07/18 01:02:47;;;;;;;5.37;2.80;;;14.10;99.90;;;;;;4918704;29;20232;-77
2022/07/18 01:05:14;;;;;;;5.57;2.80;;;14.10;99.90;;;;;;4916641;29;20201;-78
2022/07/18 01:07:41;;;;;;;8.37;3.20;;;14.00;99.90;;;;;;4928064;29;20198;-77
2022/07/18 01:10:08;;;;;;;7.00;3.00;;;14.00;99.90;;;;;;4939775;29;20261;-78
2022/07/18 01:12:35;;;;;;;7.13;3.10;;;14.00;99.90;;;;;;4933244;29;20324;-77
2022/07/18 01:15:04;;;;;;;5.67;2.80;;;13.90;99.90;;;;;;4928529;29;20293;-76
2022/07/18 01:17:31;;;;;;;5.43;2.90;;;14.00;99.90;;;;;;4949596;29;20269;-77
2022/07/18 01:20:02;;;;;;;4.53;2.90;;;13.90;99.90;;;;;;4935841;29;20198;-77
2022/07/18 01:22:28;;;;;;;10.03;3.20;;;13.90;99.90;;;;;;4934379;29;20201;-77
2022/07/18 01:24:56;;;;;;;5.77;2.77;;;13.80;99.90;;;;;;4950885;29;20225;-77
2022/07/18 01:27:23;;;;;;;10.67;3.43;;;13.80;99.90;;;;;;4928282;29;20303;-79
2022/07/18 01:29:52;;;;;;;7.27;3.07;;;13.80;99.90;;;;;;4937352;29;20225;-75
2022/07/18 01:32:19;;;;;;;5.03;3.20;;;13.80;99.90;;;;;;4937878;29;20316;-75
2022/07/18 01:34:48;;;;;;;4.83;3.20;;;13.70;99.90;;;;;;4938521;29;20204;-75
2022/07/18 01:37:16;;;;;;;6.50;3.40;;;13.70;99.90;;;;;;4957652;29;20545;-75
2022/07/18 01:39:44;;;;;;;5.10;2.70;;;13.70;99.90;;;;;;4935654;29;20251;-76
2022/07/18 01:42:14;;;;;;;6.57;3.20;;;13.60;99.90;;;;;;4922219;29;20320;-75
2022/07/18 01:44:42;;;;;;;6.37;3.40;;;13.60;99.90;;;;;;4922511;29;20209;-75
2022/07/18 01:47:12;;;;;;;4.73;3.33;;;13.60;99.90;;;;;;4922496;29;20285;-75
2022/07/18 01:49:39;;;;;;;4.07;2.80;;;13.60;99.90;;;;;;4938196;29;20241;-77
2022/07/18 01:52:09;;;;;;;6.93;3.67;;;13.50;99.90;;;;;;4937835;29;20326;-80
2022/07/18 01:54:37;;;;;;;5.90;3.20;;;13.50;99.90;;;;;;4938424;29;20717;-76
2022/07/18 01:57:06;;;;;;;5.93;3.50;;;13.50;99.90;;;;;;4922321;29;20198;-76
2022/07/18 01:59:33;;;;;;;6.37;3.30;;;13.50;99.90;;;;;;4922026;29;20666;-76
2022/07/18 02:02:02;;;;;;;6.87;3.27;;;13.50;99.90;;;;;;4939516;29;20198;-76
2022/07/18 02:07:15;;;;;;;5.80;3.13;;;13.50;99.90;;;;;;4939334;29;20200;-77
2022/07/18 02:09:42;;;;;;;6.33;3.03;;;13.50;99.90;;;;;;4922040;29;20213;-77
2022/07/18 02:12:09;;;;;;;7.27;3.40;;;13.40;99.90;;;;;;4921873;29;20234;-77
2022/07/18 02:14:36;;;;;;;5.23;2.93;;;13.50;99.90;;;;;;4922235;29;20237;-77
2022/07/18 02:17:03;;;;;;;3.43;2.90;;;13.40;99.90;;;;;;4922057;29;20207;-78
2022/07/18 02:19:30;;;;;;;4.43;3.13;;;13.40;99.90;;;;;;4921858;29;20206;-77
2022/07/18 02:21:57;;;;;;;5.70;3.17;;;13.40;99.90;;;;;;4921711;29;20206;-77
2022/07/18 02:24:24;;;;;;;6.77;3.43;;;13.30;99.90;;;;;;4921909;29;20232;-77
2022/07/18 02:26:51;;;;;;;6.47;3.40;;;13.30;99.90;;;;;;4921809;29;20223;-77
2022/07/18 02:29:18;;;;;;;4.43;3.60;;;13.20;99.90;;;;;;4920907;29;20282;-77
2022/07/18 02:31:45;;;;;;;5.03;3.60;;;13.20;99.90;;;;;;4921291;29;20318;-77
2022/07/18 02:34:12;;;;;;;6.73;3.30;;;13.20;99.90;;;;;;4921692;29;20212;-77
2022/07/18 02:36:41;;;;;;;7.07;3.53;;;13.20;99.90;;;;;;4921667;29;20213;-76
2022/07/18 02:39:09;;;;;;;6.27;3.30;;;13.20;99.90;;;;;;4938589;29;20260;-75
2022/07/18 02:41:36;;;;;;;5.53;3.40;;;13.20;99.90;;;;;;4938617;29;20201;-76
2022/07/18 02:44:04;;;;;;;7.30;3.80;;;13.20;99.90;;;;;;4921618;29;20296;-76
2022/07/18 02:46:31;;;;;;;9.07;3.57;;;13.10;99.90;;;;;;4921077;29;20202;-77
2022/07/18 02:48:58;;;;;;;4.87;3.30;;;13.20;99.90;;;;;;4921664;29;20203;-77
2022/07/18 02:51:26;;;;;;;6.43;3.87;;;13.10;99.90;;;;;;4938431;29;20266;-77
2022/07/18 02:53:53;;;;;;;6.40;3.53;;;13.20;99.90;;;;;;4921292;29;20203;-79
2022/07/18 02:56:19;;;;;;;6.17;3.57;;;13.10;99.90;;;;;;4938603;29;20220;-77
2022/07/18 02:58:46;;;;;;;6.00;3.37;;;13.10;99.90;;;;;;4921207;29;20203;-77
2022/07/18 03:01:13;;;;;;;7.53;3.53;;;13.00;99.90;;;;;;4921080;29;20759;-77
2022/07/18 03:03:40;;;;;;;5.60;3.63;;;13.00;99.90;;;;;;4921277;29;20293;-77
2022/07/18 03:06:07;;;;;;;8.43;3.43;;;13.00;99.90;;;;;;4921544;29;20202;-76
2022/07/18 03:08:35;;;;;;;8.10;3.80;;;12.90;99.90;;;;;;4920846;29;20627;-75
2022/07/18 03:11:02;;;;;;;5.50;3.40;;;12.90;99.90;;;;;;4921023;29;20205;-75
2022/07/18 03:13:29;;;;;;;7.43;3.60;;;13.10;99.90;;;;;;4920962;29;20205;-76
2022/07/18 03:15:56;;;;;;;7.00;3.63;;;13.00;99.90;;;;;;4938376;29;20270;-75
2022/07/18 03:18:24;;;;;;;6.97;3.47;;;13.00;99.90;;;;;;4921253;29;20217;-76
2022/07/18 03:20:51;;;;;;;7.07;4.00;;;13.00;99.90;;;;;;4920754;29;20631;-75
2022/07/18 03:23:18;;;;;;;8.63;3.73;;;13.00;99.90;;;;;;4920641;29;20668;-76
2022/07/18 03:25:45;;;;;;;4.90;3.60;;;13.00;99.90;;;;;;4938213;29;20645;-76
2022/07/18 03:28:12;;;;;;;6.83;3.90;;;13.00;99.90;;;;;;4938166;29;20273;-79
2022/07/18 03:30:40;;;;;;;5.87;3.50;;;13.10;99.90;;;;;;4920323;29;20787;-77
2022/07/18 03:33:07;;;;;;;6.43;3.47;;;13.10;99.90;;;;;;4937337;29;20227;-77
2022/07/18 03:35:34;;;;;;;6.97;3.73;;;13.20;99.90;;;;;;4921299;29;20209;-77
2022/07/18 03:38:01;;;;;;;6.10;3.50;;;13.20;99.90;;;;;;4921100;29;20293;-76
2022/07/18 03:40:28;;;;;;;5.93;3.73;;;13.20;99.90;;;;;;4937751;29;20527;-77
2022/07/18 03:42:55;;;;;;;5.97;3.83;;;13.20;99.90;;;;;;4920499;29;20210;-77
2022/07/18 03:45:22;;;;;;;6.47;3.57;;;13.20;99.90;;;;;;4937320;29;20199;-80
2022/07/18 03:47:49;;;;;;;8.80;3.83;;;13.20;99.90;;;;;;4920198;29;20203;-77
2022/07/18 03:50:16;;;;;;;7.93;3.80;;;13.30;99.90;;;;;;4937294;29;20218;-77
2022/07/18 03:52:43;;;;;;;8.67;3.70;;;13.30;99.90;;;;;;4919720;29;20242;-77
2022/07/18 03:55:10;;;;;;;6.13;3.70;;;13.30;99.90;;;;;;4920459;29;20645;-76
2022/07/18 03:57:37;;;;;;;6.67;3.90;;;13.40;99.90;;;;;;4920080;29;20207;-77
2022/07/18 04:00:08;;;;;;;5.70;3.60;;;13.50;99.90;;;;;;4916629;29;20199;-76
2022/07/18 04:02:43;;;;;;;7.17;4.03;;;13.50;99.90;;;;;;4900966;29;20578;-77
2022/07/18 04:05:11;;;;;;;5.87;3.80;;;13.50;99.90;;;;;;4901245;29;20212;-77
2022/07/18 04:07:38;;;;;;;11.80;3.83;;;13.60;99.90;;;;;;4901058;29;20309;-77
2022/07/18 04:10:07;;;;;;;7.63;3.90;;;13.70;99.90;;;;;;4918121;29;20603;-77
2022/07/18 04:12:34;;;;;;;6.57;3.90;;;13.80;99.90;;;;;;4901019;29;20234;-76
2022/07/18 04:15:03;;;;;;;6.00;3.70;;;13.80;99.90;;;;;;4903494;29;20282;-76
2022/07/18 04:17:32;;;;;;;6.63;3.67;;;13.80;99.90;;;;;;4919612;29;20202;-77
2022/07/18 04:19:59;;;;;;;7.20;3.70;;;13.80;99.90;;;;;;4936787;29;20191;-77
2022/07/18 04:22:26;;;;;;;7.30;4.27;;;13.90;99.90;;;;;;4919904;29;20207;-77
2022/07/18 04:24:53;;;;;;;6.50;3.57;;;13.90;99.90;;;;;;4919965;29;20296;-77
2022/07/18 04:27:20;;;;;;;6.33;3.80;;;13.90;99.90;;;;;;4919509;29;20644;-77
2022/07/18 04:29:47;;;;;;;6.93;3.53;;;13.90;99.90;;;;;;4919315;29;20632;-77
2022/07/18 04:32:14;;;;;;;6.47;3.80;;;13.90;99.90;;;;;;4919560;29;20231;-78
2022/07/18 04:34:41;;;;;;;7.73;3.70;;;13.90;99.90;;;;;;4919545;29;20210;-78
2022/07/18 04:37:09;;;;;;;7.03;3.60;;;14.00;99.90;;;;;;4919484;29;20202;-77
2022/07/18 04:39:36;;;;;;;8.47;4.27;;;14.00;99.90;;;;;;4919477;29;20247;-78
2022/07/18 04:42:03;;;;;;;10.53;3.83;;;14.20;99.90;;;;;;4919037;29;20285;-77
2022/07/18 04:44:31;;;;;;;9.87;3.97;;;14.30;99.90;;;;;;4919607;29;20234;-77
2022/07/18 04:46:57;;;;;;;7.47;3.90;;;14.40;99.90;;;;;;4919304;29;20207;-77
2022/07/18 04:49:24;;;;;;;6.83;3.47;;;14.30;99.90;;;;;;4919185;29;20572;-79
2022/07/18 04:51:51;;;;;;;6.77;3.40;;;14.50;99.90;;;;;;4919036;29;20322;-77
2022/07/18 04:54:18;;;;;;;7.37;3.60;;;14.50;99.90;;;;;;4919495;29;20212;-78
2022/07/18 04:56:46;;;;;;;8.50;3.70;;;14.60;99.90;;;;;;4936535;29;20205;-79
2022/07/18 04:59:12;;;;;;;6.97;3.57;;;14.60;99.90;;;;;;4919028;29;20212;-78
2022/07/18 05:01:40;;;;;;;9.27;3.93;;;14.50;99.90;;;;;;4919267;29;20198;-77
2022/07/18 05:04:07;;;;;;;6.40;3.67;;;14.60;99.90;;;;;;4919036;29;20226;-78
2022/07/18 05:06:34;;;;;;;8.87;3.50;;;14.80;99.90;;;;;;4919209;29;20202;-78
2022/07/18 05:09:01;;;;;;;6.77;3.57;;;14.90;99.90;;;;;;4935873;29;20661;-78
2022/07/18 05:11:28;;;;;;;7.27;3.50;;;14.90;99.90;;;;;;4918783;29;20671;-78
2022/07/18 05:13:54;;;;;;;11.47;3.70;;;15.00;99.90;;;;;;4918866;29;20202;-78
2022/07/18 05:16:21;;;;;;;7.07;4.00;;;15.10;99.90;;;;;;4919178;29;20660;-78
2022/07/18 05:18:48;;;;;;;6.87;3.50;;;15.20;99.90;;;;;;4918897;29;20213;-78
2022/07/18 05:21:16;;;;;;;6.93;3.60;;;15.20;99.90;;;;;;4936055;29;20656;-77
2022/07/18 05:23:45;;;;;;;7.50;3.50;;;15.40;99.90;;;;;;4918674;29;20203;-77
2022/07/18 05:26:12;;;;;;;9.27;3.57;;;15.50;99.90;;;;;;4918911;29;20203;-78
2022/07/18 05:28:39;;;;;;;5.83;2.97;;;15.60;99.90;;;;;;4918930;29;20206;-78
2022/07/18 05:31:06;;;;;;;7.57;3.77;;;15.80;99.90;;;;;;4919053;29;20583;-78
2022/07/18 05:33:33;;;;;;;7.97;3.20;;;15.90;99.90;;;;;;4918612;29;20232;-78
2022/07/18 05:36:04;;;;;;;5.53;3.00;;;16.00;99.90;;;;;;4918833;29;20207;-77
2022/07/18 05:38:31;;;;;;;5.13;3.27;;;15.90;99.90;;;;;;4918639;29;20313;-77
2022/07/18 05:40:57;;;;;;;6.97;3.40;;;16.00;99.90;;;;;;4918537;29;20207;-77
2022/07/18 05:43:24;;;;;;;6.43;3.47;;;16.00;99.90;;;;;;4918547;29;20199;-76
2022/07/18 05:45:51;;;;;;;5.87;2.83;;;16.10;99.90;;;;;;4918982;29;20563;-76
2022/07/18 05:48:18;;;;;;;6.30;3.10;;;16.10;99.90;;;;;;4918578;29;20203;-76
2022/07/18 05:50:45;;;;;;;5.27;3.10;;;16.10;99.90;;;;;;4918566;29;20207;-76
2022/07/18 05:53:12;;;;;;;5.47;3.07;;;16.10;99.90;;;;;;4918334;29;20648;-76
2022/07/18 05:55:39;;;;;;;6.93;3.20;;;16.30;99.90;;;;;;4918494;29;20294;-77
2022/07/18 05:58:06;;;;;;;5.47;2.53;;;16.30;99.90;;;;;;4918518;29;20294;-79
2022/07/18 06:00:34;;;;;;;6.17;2.63;;;16.50;99.90;;;;;;4918484;29;20230;-80
2022/07/18 06:03:01;;;;;;;5.23;2.50;;;16.60;99.90;;;;;;4918534;29;20203;-79
2022/07/18 06:05:28;;;;;;;4.07;2.83;;;16.80;99.90;;;;;;4918745;29;20231;-79
2022/07/18 06:07:56;;;;;;;7.17;3.13;;;17.00;99.90;;;;;;4935822;29;20724;-78
2022/07/18 06:10:25;;;;;;;7.37;3.03;;;17.00;99.90;;;;;;4918482;29;20199;-79
2022/07/18 06:12:53;;;;;;;11.47;3.13;;;17.10;99.90;;;;;;4918036;29;20218;-78
2022/07/18 06:15:21;;;;;;;6.70;2.90;;;17.10;99.90;;;;;;4935583;29;20199;-78
2022/07/18 06:17:48;;;;;;;7.70;2.73;;;17.30;99.90;;;;;;4918566;29;20234;-78
2022/07/18 06:20:15;;;;;;;5.20;2.53;;;17.50;99.90;;;;;;4935223;29;20600;-79
2022/07/18 06:22:43;;;;;;;5.60;2.43;;;17.50;99.90;;;;;;4921933;29;20297;-79
2022/07/18 06:25:10;;;;;;;5.33;2.60;;;17.50;99.90;;;;;;4938654;29;20191;-78
2022/07/18 06:27:37;;;;;;;5.50;2.57;;;17.50;99.90;;;;;;4922141;29;20230;-79
2022/07/18 06:30:07;;;;;;;6.20;2.73;;;17.60;99.90;;;;;;4921648;29;20214;-79
2022/07/18 06:32:34;;;;;;;6.17;2.30;;;17.80;99.90;;;;;;4921312;29;20249;-79
2022/07/18 06:35:02;;;;;;;3.90;2.20;;;17.80;99.90;;;;;;4921796;29;20206;-80
2022/07/18 06:37:29;;;;;;;5.47;2.10;;;18.00;99.90;;;;;;4938584;29;20194;-77
2022/07/18 06:39:56;;;;;;;5.17;2.10;;;18.10;99.90;;;;;;4921544;29;20195;-76
2022/07/18 06:42:29;;;;;;;5.17;2.20;;;18.10;99.90;;;;;;4921242;29;20203;-76
2022/07/18 06:44:56;;;;;;;8.73;3.03;;;18.10;99.90;;;;;;4938543;29;20230;-77
2022/07/18 06:47:22;;;;;;;5.90;2.10;;;18.30;99.90;;;;;;4921392;29;20760;-78
2022/07/18 06:49:50;;;;;;;6.50;2.23;;;18.40;99.90;;;;;;4921334;29;20206;-78
2022/07/18 06:52:17;;;;;;;7.27;2.30;;;18.40;99.90;;;;;;4920738;29;20235;-76
2022/07/18 06:54:44;;;;;;;8.27;2.30;;;18.50;99.90;;;;;;4921078;29;20207;-75
2022/07/18 06:57:11;;;;;;;10.83;2.40;;;18.50;99.90;;;;;;4920784;29;20226;-78
2022/07/18 06:59:38;;;;;;;8.17;2.17;;;18.60;99.90;;;;;;4920777;29;20203;-76
2022/07/18 07:02:13;;;;;;;3.97;2.30;;;18.80;99.90;;;;;;4920558;29;20187;-76
2022/07/18 07:04:40;;;;;;;7.93;2.47;;;19.00;99.90;;;;;;4920876;29;20213;-77
2022/07/18 07:07:07;;;;;;;5.77;2.20;;;18.70;99.90;;;;;;4936304;29;20660;-76
2022/07/18 07:09:34;;;;;;;4.70;2.10;;;18.70;99.90;;;;;;4919839;29;20251;-76
2022/07/18 07:12:01;;;;;;;7.87;2.50;;;18.80;99.90;;;;;;4937202;29;20254;-75
2022/07/18 07:14:28;;;;;;;8.53;2.30;;;18.90;99.90;;;;;;4920193;29;20199;-74
2022/07/18 07:16:55;;;;;;;7.23;2.17;;;18.90;99.90;;;;;;4937461;29;20180;-75
2022/07/18 07:19:22;;;;;;;4.20;2.00;;;18.80;99.90;;;;;;4920899;29;20206;-76
2022/07/18 07:21:49;;;;;;;9.57;2.23;;;19.00;99.90;;;;;;4937461;29;20334;-74
2022/07/18 07:24:17;;;;;;;6.03;2.17;;;19.00;99.90;;;;;;4920666;29;20195;-76
2022/07/18 07:26:43;;;;;;;6.17;2.40;;;18.90;99.90;;;;;;4932405;29;20671;-74
2022/07/18 07:29:10;;;;;;;5.70;2.10;;;18.90;99.90;;;;;;4929769;29;20232;-76
2022/07/18 07:31:37;;;;;;;6.33;2.30;;;18.90;99.90;;;;;;4939640;29;20226;-77
2022/07/18 07:34:05;;;;;;;4.20;2.20;;;18.90;99.90;;;;;;4919585;29;20223;-77
2022/07/18 07:36:32;;;;;;;6.47;2.70;;;18.90;99.90;;;;;;4920403;29;20214;-77
2022/07/18 07:38:59;;;;;;;7.00;2.53;;;19.10;99.90;;;;;;4920289;29;20217;-76
2022/07/18 07:41:27;;;;;;;6.13;2.63;;;19.00;99.90;;;;;;4920340;29;20298;-76
2022/07/18 07:43:54;;;;;;;5.97;2.70;;;19.10;99.90;;;;;;4920757;29;20667;-72
2022/07/18 07:46:21;;;;;;;8.30;3.30;;;19.10;99.90;;;;;;4920636;29;20226;-76
2022/07/18 07:48:49;;;;;;;8.37;3.43;;;19.20;99.90;;;;;;4919874;29;20207;-75
2022/07/18 07:51:16;;;;;;;7.47;3.03;;;19.30;99.90;;;;;;4938482;29;20794;-76
2022/07/18 07:53:51;;;;;;;7.00;3.10;;;19.40;99.90;;;;;;4949874;29;20691;-76
2022/07/18 07:56:19;;;;;;;5.70;3.00;;;19.60;99.90;;;;;;4955364;29;20726;-75
2022/07/18 07:58:47;;;;;;;7.13;2.90;;;19.80;99.90;;;;;;4938186;29;20237;-76
2022/07/18 08:01:17;;;;;;;4.17;2.60;;;20.20;99.90;;;;;;4955608;29;20191;-74
2022/07/18 08:03:46;;;;;;;5.27;2.80;;;19.90;99.90;;;;;;4954252;29;20202;-75
2022/07/18 08:06:13;;;;;;;5.87;3.00;;;19.90;99.90;;;;;;4936375;29;20190;-75
2022/07/18 08:08:40;;;;;;;6.30;2.43;;;20.10;99.90;;;;;;4954548;29;20201;-80
2022/07/18 08:11:07;;;;;;;4.93;2.60;;;20.00;99.90;;;;;;4945844;29;20193;-75
2022/07/18 08:13:34;;;;;;;4.27;2.30;;;20.00;99.90;;;;;;4919311;29;20227;-76
2022/07/18 08:16:01;;;;;;;6.00;2.60;;;20.00;99.90;;;;;;4920097;29;20202;-78
2022/07/18 08:18:28;;;;;;;4.67;2.40;;;20.00;99.90;;;;;;4919653;29;20222;-74
2022/07/18 08:20:56;;;;;;;5.67;2.10;;;20.00;99.90;;;;;;4936503;29;20191;-75
2022/07/18 08:23:22;;;;;;;5.80;2.10;;;19.70;99.90;;;;;;4919555;29;20206;-75
2022/07/18 08:25:50;;;;;;;4.93;2.20;;;20.10;99.90;;;;;;4935432;29;20600;-76
2022/07/18 08:28:18;;;;;;;3.53;1.93;;;20.40;99.90;;;;;;4936668;29;20198;-76
2022/07/18 08:30:45;;;;;;;6.30;2.07;;;20.70;99.90;;;;;;4919291;29;20223;-76
2022/07/18 08:33:12;;;;;;;6.20;2.13;;;21.20;99.90;;;;;;4919006;29;20309;-74
2022/07/18 08:35:39;;;;;;;6.03;2.10;;;21.40;99.90;;;;;;4919248;29;20648;-75
2022/07/18 08:38:06;;;;;;;6.57;2.43;;;21.20;99.90;;;;;;4919484;29;20725;-74
2022/07/18 08:40:35;;;;;;;5.97;1.90;;;21.20;99.90;;;;;;4936661;29;20652;-78
2022/07/18 08:43:02;;;;;;;6.03;1.87;;;21.50;99.90;;;;;;4919410;29;20241;-73
2022/07/18 08:45:48;;;;;;;3.00;1.83;;;21.90;99.90;;;;;;4936451;29;20179;-74
2022/07/18 08:48:17;;;;;;;7.93;2.30;;;22.00;99.90;;;;;;4936276;29;20198;-75
2022/07/18 08:50:45;;;;;;;6.40;1.93;;;22.00;99.90;;;;;;4918725;29;20242;-78
2022/07/18 08:53:13;;;;;;;5.43;2.00;;;22.00;99.90;;;;;;4934487;29;20792;-75
2022/07/18 08:55:40;;;;;;;8.37;2.30;;;22.40;99.90;;;;;;4934862;29;20301;-74
2022/07/18 08:58:07;;;;;;;7.53;2.40;;;22.60;99.90;;;;;;4935996;29;20647;-74
2022/07/18 09:00:54;;;;;;;5.30;2.10;;;22.80;99.90;;;;;;4918835;29;20202;-75
2022/07/18 09:03:21;;;;;;;4.30;1.98;;;22.80;99.90;;;;;;4918661;29;20234;-74
2022/07/18 09:06:02;;;;;;;4.17;1.83;;;22.80;99.90;;;;;;4935015;29;20202;-74
2022/07/18 09:08:30;;;;;;;6.55;2.10;;;22.80;99.90;;;;;;4919059;29;20209;-76
2022/07/18 09:10:59;;;;;;;5.07;1.88;;;22.80;99.90;;;;;;4934650;29;20539;-74
2022/07/18 09:13:40;;;;;;;6.20;2.35;;;23.10;99.90;;;;;;4935594;29;20214;-76
2022/07/18 09:16:10;;;;;;;7.03;2.05;;;23.30;99.90;;;;;;4937918;29;20208;-77
2022/07/18 09:18:40;;;;;;;5.13;2.10;;;23.20;99.90;;;;;;4937965;29;20202;-78
2022/07/18 09:21:20;;;;;;;5.53;2.10;;;23.40;99.90;;;;;;4937596;29;20217;-77
2022/07/18 09:23:49;;;;;;;4.60;2.00;;;23.90;99.90;;;;;;4938037;29;20252;-80
2022/07/18 09:26:42;;;;;;;5.43;1.90;;;24.20;99.90;;;;;;4938480;29;20301;-74
2022/07/18 09:29:15;;;;;;;5.90;2.30;;;25.10;99.90;;;;;;4955551;29;20732;-76
2022/07/18 09:32:03;;;;;;;5.85;2.03;;;24.70;99.90;;;;;;4938559;29;20220;-82
2022/07/18 09:34:39;;;;;;;4.43;2.05;;;23.80;99.90;;;;;;4955666;29;20221;-80
2022/07/18 09:37:13;;;;;;;5.60;2.25;;;23.50;99.90;;;;;;4938996;29;20746;-80
2022/07/18 09:39:40;;;;;;;8.23;2.38;;;23.70;99.90;;;;;;4938739;29;20225;-83
2022/07/18 09:42:21;;;;;;;4.70;2.05;;;24.30;99.90;;;;;;4938037;29;20229;-79
2022/07/18 09:44:58;;;;;;;5.55;2.17;;;24.30;99.90;;;;;;4955133;29;20196;-76
2022/07/18 09:47:25;;;;;;;4.47;2.10;;;24.10;99.90;;;;;;4938673;29;20301;-75
2022/07/18 09:49:54;;;;;;;4.38;2.00;;;24.30;99.90;;;;;;4938353;29;20214;-76
2022/07/18 09:52:22;;;;;;;5.10;2.10;;;24.60;99.90;;;;;;4938024;29;20233;-75
2022/07/18 09:54:49;;;;;;;3.38;2.00;;;25.00;99.90;;;;;;4938617;29;20642;-78
2022/07/18 09:57:25;;;;;;;4.53;2.10;;;25.50;99.90;;;;;;4940899;29;20220;-78
2022/07/18 09:59:53;;;;;;;5.13;1.67;;;25.20;99.90;;;;;;4937800;29;20638;-77
2022/07/18 10:02:20;;;;;;;3.75;1.90;;;25.00;99.90;;;;;;4936389;28;20295;-77
2022/07/18 10:04:47;;;;;;;5.28;2.00;;;25.00;99.90;;;;;;4919076;29;20214;-73
2022/07/18 10:07:15;;;;;;;5.30;2.28;;;25.30;99.90;;;;;;4921699;29;20259;-74
2022/07/18 10:09:44;;;;;;;3.83;2.03;;;25.40;99.90;;;;;;4931232;29;20758;-75
2022/07/18 10:12:14;;;;;;;4.50;2.00;;;25.80;99.90;;;;;;4937443;29;20637;-83
2022/07/18 10:14:42;;;;;;;6.18;2.33;;;26.00;99.90;;;;;;4937757;29;20441;-73
2022/07/18 10:17:10;;;;;;;5.28;2.08;;;25.20;99.90;;;;;;4939953;29;20696;-73
2022/07/18 10:19:38;;;;;;;4.50;1.90;;;25.10;99.90;;;;;;4920642;29;20294;-84
2022/07/18 10:22:08;;;;;;;5.30;1.92;;;25.60;99.90;;;;;;4921175;29;20206;-79
2022/07/18 10:24:49;;;;;;;4.60;2.25;;;26.10;99.90;;;;;;4915627;29;20688;-83
2022/07/18 10:27:19;;;;;;;4.45;2.10;;;26.70;99.90;;;;;;4925306;29;20223;-83
2022/07/18 10:30:09;;;;;;;3.55;2.28;;;26.90;99.90;;;;;;4938655;29;20191;-85
2022/07/18 10:32:36;;;;;;;4.35;2.20;;;26.50;99.90;;;;;;4921589;29;20199;-80
2022/07/18 10:35:06;;;;;;;3.58;2.10;;;26.10;99.90;;;;;;4921290;29;20223;-82
2022/07/18 10:37:35;;;;;;;3.35;1.90;;;25.80;99.90;;;;;;4938656;29;20431;-80
2022/07/18 10:40:24;;;;;;;2.70;1.75;;;25.70;99.90;;;;;;4939891;29;20547;-86
2022/07/18 10:43:29;;;;;;;4.68;2.00;;;25.40;99.90;;;;;;4917524;29;20207;-86
2022/07/18 10:45:59;;;;;;;4.13;1.85;;;24.70;99.90;;;;;;4899509;29;20295;-80
2022/07/18 10:48:32;;;;;;;2.80;1.80;;;24.60;99.90;;;;;;4898999;29;20296;-85
2022/07/18 10:51:00;;;;;;;2.95;1.77;;;24.60;99.90;;;;;;4882813;29;20713;-85
2022/07/18 10:53:59;;;;;;;3.97;1.80;;;24.90;99.90;;;;;;4881773;29;20549;-78
2022/07/18 10:56:35;;;;;;;5.82;1.80;;;24.90;99.90;;;;;;4882857;29;20201;-81
2022/07/18 10:59:16;;;;;;;5.25;2.22;;;25.20;99.90;;;;;;4897106;29;20210;-86
2022/07/18 11:01:53;;;;;;;5.38;1.70;;;25.60;99.90;;;;;;4883703;29;20208;-91
2022/07/18 11:04:34;;;;;;;2.58;1.80;;;24.90;99.90;;;;;;4884202;29;20100;-90
2022/07/18 11:07:13;;;;;;;4.85;1.90;;;25.30;99.90;;;;;;4898592;29;20196;-78
2022/07/18 11:09:45;;;;;;;3.93;1.63;;;25.70;99.90;;;;;;4897589;29;20581;-84
2022/07/18 11:12:29;;;;;;;4.05;1.77;;;25.00;99.90;;;;;;4867816;29;20364;-77
2022/07/18 11:15:10;;;;;;;3.92;1.90;;;24.70;99.90;;;;;;4879943;29;20770;-81
2022/07/18 11:17:55;;;;;;;3.72;1.90;;;24.60;99.90;;;;;;4881732;29;20218;-79
2022/07/18 11:20:33;;;;;;;8.02;2.20;;;24.60;99.90;;;;;;4901272;29;20204;-80
2022/07/18 11:23:02;;;;;;;3.80;1.98;;;24.90;99.90;;;;;;4939420;29;20300;-81
2022/07/18 11:25:30;;;;;;;2.70;1.85;;;24.90;99.90;;;;;;4930840;29;20236;-79
2022/07/18 11:28:21;;;;;;;3.00;1.83;;;25.40;99.90;;;;;;4953058;29;20227;-78
2022/07/18 11:31:08;;;;;;;6.55;1.90;;;25.70;99.90;;;;;;4920021;29;20206;-86
2022/07/18 11:33:38;;;;;;;5.32;2.08;;;25.90;99.90;;;;;;4928868;29;20696;-81
2022/07/18 11:36:08;;;;;;;4.97;1.98;;;25.70;99.90;;;;;;4944000;29;20203;-78
2022/07/18 11:38:38;;;;;;;3.42;1.85;;;25.30;99.90;;;;;;4920825;29;20195;-82
2022/07/18 11:41:06;;;;;;;3.58;2.05;;;25.00;99.90;;;;;;4918896;29;20195;-79
2022/07/18 11:43:33;;;;;;;3.72;1.70;;;24.80;99.90;;;;;;4920457;29;20246;-78
2022/07/18 11:46:22;;;;;;;2.38;1.60;;;24.90;99.90;;;;;;4920099;29;20226;-81
2022/07/18 11:49:06;;;;;;;3.95;1.95;;;25.10;99.90;;;;;;4918181;29;20195;-82
2022/07/18 11:51:42;;;;;;;3.22;1.70;;;25.10;99.90;;;;;;4916301;29;20244;-83
2022/07/18 11:54:10;;;;;;;4.15;2.17;;;25.10;99.90;;;;;;4918387;29;20312;-79
2022/07/18 11:56:49;;;;;;;5.05;1.88;;;25.00;99.90;;;;;;4924602;29;20647;-80
2022/07/18 11:59:17;;;;;;;3.92;1.88;;;24.60;99.90;;;;;;4925250;29;20208;-81
2022/07/18 12:01:44;;;;;;;3.22;1.80;;;24.60;99.90;;;;;;4935605;29;20226;-79
2022/07/18 12:04:21;;;;;;;4.85;1.85;;;24.60;99.90;;;;;;4951752;29;20289;-79
2022/07/18 12:07:24;;;;;;;6.22;2.05;;;24.60;99.90;;;;;;4936296;29;20290;-81
2022/07/18 12:09:52;;;;;;;4.35;1.92;;;24.90;99.90;;;;;;4935687;29;20578;-76
2022/07/18 12:12:24;;;;;;;3.53;1.83;;;26.00;99.90;;;;;;4935668;29;20298;-77
2022/07/18 12:15:00;;;;;;;3.08;1.70;;;26.40;99.90;;;;;;4919759;29;20219;-77
2022/07/18 12:17:28;;;;;;;1.95;1.52;;;26.30;98.50;;;;;;4935991;29;20198;-76
2022/07/18 12:20:19;;;;;;;6.75;1.90;;;26.80;99.70;;;;;;4919972;29;20707;-78
2022/07/18 12:23:07;;;;;;;4.00;1.92;;;26.90;97.40;;;;;;4921013;29;20207;-82
2022/07/18 12:25:42;;;;;;;4.47;2.05;;;27.30;97.10;;;;;;4914270;29;20205;-81
2022/07/18 12:28:18;;;;;;;4.18;1.80;;;27.90;96.70;;;;;;4900456;29;20214;-82
2022/07/18 12:30:45;;;;;;;2.20;1.60;;;28.60;95.00;;;;;;4918022;29;20247;-80
2022/07/18 12:33:13;;;;;;;2.03;1.60;;;29.00;94.10;;;;;;4911449;29;20680;-84
2022/07/18 12:35:41;;;;;;;3.10;1.50;;;28.70;93.70;;;;;;4919559;29;20230;-81
2022/07/18 12:38:16;;;;;;;2.90;1.77;;;28.90;93.50;;;;;;4919529;29;20224;-84
2022/07/18 12:40:44;;;;;;;6.43;1.80;;;28.50;93.00;;;;;;4920075;29;20206;-81
2022/07/18 12:43:32;;;;;;;2.20;1.73;;;27.90;93.30;;;;;;4919282;29;20219;-83
2022/07/18 12:46:02;;;;;;;4.18;2.03;;;28.60;93.60;;;;;;4920227;29;20246;-76
2022/07/18 12:48:31;;;;;;;5.43;1.80;;;29.60;92.90;;;;;;4920028;29;20207;-82
2022/07/18 12:51:04;;;;;;;2.95;1.70;;;30.20;90.40;;;;;;4919913;29;20199;-80
2022/07/18 12:53:34;;;;;;;6.75;1.98;;;29.50;89.60;;;;;;4936345;29;20317;-83
2022/07/18 12:56:04;;;;;;;5.07;1.80;;;29.00;90.90;;;;;;4919935;29;20297;-81
2022/07/18 12:58:31;;;;;;;3.58;1.77;;;29.30;91.70;;;;;;4920048;29;20289;-85
2022/07/18 13:00:58;;;;;;;3.83;1.83;;;29.60;90.00;;;;;;4947349;29;20219;-86
2022/07/18 13:03:33;;;;;;;3.25;1.80;;;28.50;89.60;;;;;;4901017;29;20237;-92